Route Details

Aircraft Information
Group: European Fleet
Types: A30F, A31F, B738
Route Data
Distance: 394nm
Duration: 1h 14m
Origin METAR: LIMJ 160020Z 34005KT 9999 BKN025 25/23 Q1008
Dest. METAR: EDDK 160020Z AUTO 14006KT CAVOK 18/14 Q1007 NOSIG
Freight Data
(for Aug 16, 2022)
Load Factor:
36%
Manifested Cargo: 32,004lbs
Financial History
Total Freight: 269,589lbs
Average Load: 0lbs/flt
Fuel Used: 131,032lbs
Avg. Fuel Used: 0lbs/flt
Fuel Expense: $58,182
Avg. Fuel Expense: $0
Avg. Fuel Cost: $0/lbs
Total Gross Income: $516,114
Pilot Pay: $2,339
Total Expenses: $89,287
Total Revenue: $398,507
Average Revenue: $0

Capitol Logistics 501




LIMJ
Genoa Cristoforo Colombo Airport
Genoa, IT
EDDK
Cologne Bonn Airport
Cologne, DE